createdAt,value
2023-04-05T00:02:04.476Z,40.59
2023-04-05T00:04:57.794Z,40.39
2023-04-05T00:07:48.466Z,40.33
2023-04-05T00:10:38.411Z,40.55
2023-04-05T00:13:27.766Z,40.46
2023-04-05T00:16:17.788Z,40.56
2023-04-05T00:19:07.261Z,40.37
2023-04-05T00:21:57.453Z,40.26
2023-04-05T00:24:50.370Z,40.32
2023-04-05T00:27:39.339Z,40.74
2023-04-05T00:30:30.139Z,40.40
2023-04-05T00:33:19.378Z,40.70
2023-04-05T00:36:13.403Z,40.47
2023-04-05T00:39:02.736Z,40.73
2023-04-05T00:41:53.451Z,40.75
2023-04-05T00:44:42.518Z,40.92
2023-04-05T00:47:31.867Z,40.78
2023-04-05T00:50:21.736Z,40.78
2023-04-05T00:53:11.463Z,40.65
2023-04-05T00:56:01.508Z,40.67
2023-04-05T00:58:53.422Z,40.81
2023-04-05T01:01:43.610Z,40.95
2023-04-05T01:04:33.402Z,41.08
2023-04-05T01:07:27.942Z,40.76
2023-04-05T01:10:19.321Z,40.90
2023-04-05T01:13:08.922Z,40.66
2023-04-05T01:15:59.614Z,40.59
2023-04-05T01:18:49.051Z,40.63
2023-04-05T01:21:55.995Z,41.04
2023-04-05T01:24:57.823Z,40.90
2023-04-05T01:28:05.267Z,41.18
2023-04-05T01:30:59.727Z,40.92
2023-04-05T01:33:55.926Z,41.07
2023-04-05T01:36:48.585Z,40.80
2023-04-05T01:39:38.379Z,40.84
2023-04-05T01:42:28.153Z,41.14
2023-04-05T01:45:19.287Z,41.07
2023-04-05T01:48:11.062Z,40.74
2023-04-05T01:51:00.136Z,40.92
2023-04-05T01:53:49.274Z,40.83
2023-04-05T01:56:38.568Z,40.71
2023-04-05T01:59:29.019Z,41.20
2023-04-05T02:02:18.244Z,41.11
2023-04-05T02:05:10.282Z,41.02
2023-04-05T02:07:59.239Z,41.10
2023-04-05T02:10:49.275Z,41.18
2023-04-05T02:13:38.527Z,41.23
2023-04-05T02:16:28.017Z,40.84
2023-04-05T02:19:23.339Z,41.17
2023-04-05T02:22:14.340Z,41.44
2023-04-05T02:25:06.377Z,41.38
2023-04-05T02:27:55.795Z,41.21
2023-04-05T02:30:45.507Z,41.20
2023-04-05T02:33:35.221Z,41.32
2023-04-05T02:36:24.424Z,41.42
2023-04-05T02:39:15.460Z,40.91
2023-04-05T02:42:07.429Z,41.31
2023-04-05T02:44:56.685Z,41.29
2023-04-05T02:47:45.982Z,41.24
2023-04-05T02:50:35.219Z,41.35
2023-04-05T02:53:24.329Z,41.09
2023-04-05T02:56:15.039Z,41.38
2023-04-05T02:59:05.196Z,41.63
2023-04-05T03:01:54.600Z,41.54
2023-04-05T03:04:45.217Z,41.46
2023-04-05T03:07:35.705Z,41.16
2023-04-05T03:10:26.321Z,41.62
2023-04-05T03:13:17.076Z,41.58
2023-04-05T03:16:06.889Z,41.40
2023-04-05T03:18:56.196Z,41.55
2023-04-05T03:21:45.379Z,41.51
2023-04-05T03:24:35.985Z,41.53
2023-04-05T03:27:26.203Z,41.61
2023-04-05T03:30:17.202Z,41.65
2023-04-05T03:33:06.969Z,41.73
2023-04-05T03:35:56.180Z,41.32
2023-04-05T03:38:48.008Z,41.47
2023-04-05T03:41:36.925Z,41.84
2023-04-05T03:44:27.153Z,41.83
2023-04-05T03:47:18.392Z,41.62
2023-04-05T03:50:09.537Z,41.76
2023-04-05T03:53:01.469Z,41.33
2023-04-05T03:55:54.278Z,41.46
2023-04-05T03:58:45.117Z,41.85
2023-04-05T04:01:37.343Z,41.78
2023-04-05T04:04:30.755Z,42.01
2023-04-05T04:07:25.066Z,41.82
2023-04-05T04:10:18.050Z,41.52
2023-04-05T04:13:06.794Z,41.88
2023-04-05T04:15:56.046Z,41.75
2023-04-05T04:18:46.756Z,41.73
2023-04-05T04:21:41.829Z,41.89
2023-04-05T04:24:32.597Z,41.68
2023-04-05T04:27:21.446Z,41.64
2023-04-05T04:30:11.261Z,41.29
2023-04-05T04:33:06.636Z,41.19
2023-04-05T04:35:56.931Z,41.46
2023-04-05T04:38:51.393Z,41.76
2023-04-05T04:41:44.780Z,41.77
2023-04-05T04:44:33.578Z,41.77
2023-04-05T04:47:23.223Z,41.95
2023-04-05T04:50:12.922Z,41.85
2023-04-05T04:53:02.346Z,41.86
2023-04-05T04:55:52.783Z,42.19
2023-04-05T04:58:41.769Z,42.04
2023-04-05T05:01:30.662Z,42.00
2023-04-05T05:04:19.421Z,42.06
2023-04-05T05:07:08.011Z,41.83
2023-04-05T05:09:56.991Z,41.96
2023-04-05T05:12:49.902Z,42.01
2023-04-05T05:15:40.971Z,41.90
2023-04-05T05:18:29.565Z,41.86
2023-04-05T05:21:18.215Z,41.94
2023-04-05T05:24:09.974Z,41.76
2023-04-05T05:26:58.567Z,42.21
2023-04-05T05:29:48.823Z,41.94
2023-04-05T05:32:37.515Z,42.00
2023-04-05T05:35:26.183Z,42.50
2023-04-05T05:38:15.044Z,41.94
2023-04-05T05:41:03.704Z,41.93
2023-04-05T05:43:53.739Z,42.30
2023-04-05T05:46:43.759Z,42.23
2023-04-05T05:49:32.363Z,42.41
2023-04-05T05:52:21.162Z,42.09
2023-04-05T05:55:10.403Z,41.94
2023-04-05T05:57:59.245Z,41.88
2023-04-05T06:00:50.486Z,42.16
2023-04-05T06:03:40.873Z,41.99
2023-04-05T06:06:30.087Z,41.82
2023-04-05T06:09:18.706Z,41.97
2023-04-05T06:12:10.771Z,41.36
2023-04-05T06:14:59.684Z,41.30
2023-04-05T06:17:48.383Z,41.41
2023-04-05T06:20:41.387Z,41.51
2023-04-05T06:23:30.698Z,41.70
2023-04-05T06:26:20.711Z,41.85
2023-04-05T06:29:10.319Z,41.60
2023-04-05T06:31:58.954Z,41.82
2023-04-05T06:34:48.994Z,41.79
2023-04-05T06:37:39.307Z,41.41
2023-04-05T06:40:28.040Z,41.59
2023-04-05T06:43:16.778Z,41.71
2023-04-05T06:46:08.973Z,41.39
2023-04-05T06:48:57.618Z,41.53
2023-04-05T06:51:46.294Z,41.59
2023-04-05T06:54:36.492Z,41.52
2023-04-05T06:57:25.071Z,41.31
2023-04-05T07:00:17.374Z,41.31
2023-04-05T07:03:06.543Z,41.60
2023-04-05T07:05:56.937Z,41.33
2023-04-05T07:08:45.889Z,41.48
2023-04-05T07:11:36.357Z,41.44
2023-04-05T07:14:25.057Z,41.37
2023-04-05T07:17:13.797Z,40.98
2023-04-05T07:20:02.376Z,41.21
2023-04-05T07:22:51.000Z,41.04
2023-04-05T07:25:41.498Z,41.19
2023-04-05T07:28:32.148Z,40.93
2023-04-05T07:31:20.857Z,41.22
2023-04-05T07:34:09.615Z,41.03
2023-04-05T07:36:58.270Z,40.81
2023-04-05T07:39:46.857Z,40.82
2023-04-05T07:42:35.490Z,40.67
2023-04-05T07:45:25.539Z,40.71
2023-04-05T07:48:14.217Z,40.64
2023-04-05T07:51:07.213Z,40.68
2023-04-05T07:53:56.169Z,40.79
2023-04-05T07:56:44.922Z,40.61
2023-04-05T07:59:33.891Z,40.20
2023-04-05T08:02:23.853Z,40.40
2023-04-05T08:05:12.545Z,40.19
2023-04-05T08:08:01.377Z,40.42
2023-04-05T08:10:50.048Z,40.34
2023-04-05T08:13:40.566Z,40.44
2023-04-05T08:16:29.532Z,40.49
2023-04-05T08:19:19.524Z,40.50
2023-04-05T08:22:08.438Z,40.42
2023-04-05T08:24:57.178Z,40.12
2023-04-05T08:27:46.165Z,40.08
2023-04-05T08:30:34.759Z,40.27
2023-04-05T08:33:23.477Z,40.26
2023-04-05T08:36:13.515Z,40.33
2023-04-05T08:39:02.218Z,40.53
2023-04-05T08:41:58.146Z,40.65
2023-04-05T08:44:47.291Z,40.91
2023-04-05T08:47:37.414Z,40.73
2023-04-05T08:50:27.358Z,41.19
2023-04-05T08:53:17.399Z,40.97
2023-04-05T08:56:06.493Z,41.48
2023-04-05T08:58:59.751Z,41.08
2023-04-05T09:01:49.592Z,41.42
2023-04-05T09:04:40.446Z,41.79
2023-04-05T09:07:31.322Z,41.32
2023-04-05T09:10:23.310Z,41.17
2023-04-05T09:13:12.689Z,41.33
2023-04-05T09:16:03.298Z,41.17
2023-04-05T09:18:51.907Z,41.05
2023-04-05T09:22:05.380Z,41.11
2023-04-05T09:24:53.966Z,41.21
2023-04-05T09:27:57.502Z,40.88
2023-04-05T09:30:48.121Z,40.92
2023-04-05T09:33:36.860Z,40.73
2023-04-05T09:36:25.707Z,40.74
2023-04-05T09:39:16.176Z,40.70
2023-04-05T09:42:09.652Z,40.86
2023-04-05T09:45:02.379Z,41.03
2023-04-05T09:47:58.192Z,40.98
2023-04-05T09:50:47.023Z,40.62
2023-04-05T09:53:35.691Z,40.74
2023-04-05T09:56:24.291Z,40.89
2023-04-05T09:59:14.072Z,41.09
2023-04-05T10:02:04.138Z,41.05
2023-04-05T10:04:53.254Z,40.99
2023-04-05T10:07:42.217Z,41.27
2023-04-05T10:10:31.029Z,41.10
2023-04-05T10:13:20.583Z,41.40
2023-04-05T10:16:11.183Z,41.08
2023-04-05T10:19:05.948Z,41.03
2023-04-05T10:21:55.995Z,40.97
2023-04-05T10:24:50.595Z,41.18
2023-04-05T10:27:49.381Z,41.07
2023-04-05T10:30:49.860Z,40.96
2023-04-05T10:33:42.818Z,40.85
2023-04-05T10:36:40.149Z,40.84
2023-04-05T10:39:30.852Z,40.75
2023-04-05T10:42:22.630Z,40.96
2023-04-05T10:45:15.529Z,40.83
2023-04-05T10:48:11.283Z,41.16
2023-04-05T10:51:00.316Z,40.90
2023-04-05T10:53:50.924Z,41.01
2023-04-05T10:56:39.812Z,40.79
2023-04-05T10:59:29.704Z,40.75
2023-04-05T11:02:20.554Z,40.77
2023-04-05T11:05:34.110Z,40.77
2023-04-05T11:08:22.921Z,40.65
2023-04-05T11:11:13.612Z,40.69
2023-04-05T11:14:02.263Z,40.62
2023-04-05T11:16:55.390Z,40.72
2023-04-05T11:19:52.369Z,40.70
2023-04-05T11:22:41.144Z,41.30
2023-04-05T11:25:29.993Z,41.05
2023-04-05T11:28:28.662Z,41.41
2023-04-05T11:31:19.330Z,41.25
2023-04-05T11:34:11.138Z,41.10
2023-04-05T11:36:59.722Z,41.32
2023-04-05T11:39:48.675Z,41.07
2023-04-05T11:42:37.827Z,41.16
2023-04-05T11:45:29.332Z,41.29
2023-04-05T11:48:19.958Z,41.22
2023-04-05T11:51:10.551Z,41.34
2023-04-05T11:53:59.157Z,41.48
2023-04-05T11:56:53.062Z,41.44
2023-04-05T11:59:41.724Z,41.58
2023-04-05T12:02:36.067Z,41.44
2023-04-05T12:05:24.832Z,41.49
2023-04-05T12:08:13.476Z,41.42
2023-04-05T12:11:02.237Z,41.20
2023-04-05T12:13:50.949Z,41.37
2023-04-05T12:16:50.415Z,41.12
2023-04-05T12:19:40.589Z,41.50
2023-04-05T12:22:29.253Z,41.20
2023-04-05T12:25:18.320Z,41.49
2023-04-05T12:28:09.021Z,41.30
2023-04-05T12:30:58.878Z,41.31
2023-04-05T12:33:47.519Z,41.28
2023-04-05T12:36:37.597Z,41.28
2023-04-05T12:39:31.991Z,41.32
2023-04-05T12:42:21.112Z,40.94
2023-04-05T12:45:13.433Z,41.41
2023-04-05T12:48:02.173Z,41.57
2023-04-05T12:50:54.576Z,41.35
2023-04-05T12:53:48.425Z,41.33
2023-04-05T12:56:37.444Z,41.27
2023-04-05T12:59:26.338Z,41.46
2023-04-05T13:02:15.060Z,41.00
2023-04-05T13:05:03.690Z,41.31
2023-04-05T13:07:52.680Z,41.20
2023-04-05T13:10:42.802Z,41.08
2023-04-05T13:13:31.771Z,41.14
2023-04-05T13:16:20.377Z,41.19
2023-04-05T13:19:08.958Z,41.08
2023-04-05T13:21:57.602Z,41.36
2023-04-05T13:24:48.608Z,41.27
2023-04-05T13:27:38.581Z,41.39
2023-04-05T13:30:27.658Z,41.67
2023-04-05T13:33:16.315Z,41.63
2023-04-05T13:36:05.116Z,41.61
2023-04-05T13:38:53.821Z,41.33
2023-04-05T13:41:42.444Z,41.37
2023-04-05T13:44:32.386Z,39.68
2023-04-05T13:47:21.128Z,38.88
2023-04-05T13:50:10.390Z,38.45
2023-04-05T13:52:59.106Z,37.22
2023-04-05T13:55:47.749Z,37.00
2023-04-05T13:58:36.505Z,36.41
2023-04-05T14:01:26.638Z,36.33
2023-04-05T14:04:15.492Z,36.41
2023-04-05T14:07:04.298Z,35.84
2023-04-05T14:09:52.968Z,35.78
2023-04-05T14:12:41.543Z,35.61
2023-04-05T14:15:31.003Z,35.76
2023-04-05T14:18:21.163Z,35.67
2023-04-05T14:21:10.023Z,35.66
2023-04-05T14:23:58.735Z,35.13
2023-04-05T14:26:49.860Z,35.16
2023-04-05T14:29:38.705Z,34.86
2023-04-05T14:32:27.677Z,35.03
2023-04-05T14:35:17.960Z,34.73
2023-04-05T14:38:06.709Z,34.70
2023-04-05T14:40:55.643Z,34.58
2023-04-05T14:43:44.445Z,34.51
2023-04-05T14:46:33.238Z,34.81
2023-04-05T14:49:21.988Z,34.84
2023-04-05T14:52:12.215Z,34.53
2023-04-05T14:55:01.190Z,34.72
2023-04-05T14:57:50.026Z,34.25
2023-04-05T15:00:38.973Z,34.73
2023-04-05T15:03:27.998Z,34.38
2023-04-05T15:06:17.527Z,35.26
2023-04-05T15:09:07.630Z,36.03
2023-04-05T15:11:56.697Z,36.28
2023-04-05T15:14:45.770Z,36.04
2023-04-05T15:17:34.751Z,36.24
2023-04-05T15:20:23.501Z,36.17
2023-04-05T15:23:12.336Z,36.80
2023-04-05T15:26:02.501Z,35.97
2023-04-05T15:28:51.214Z,36.08
2023-04-05T15:31:41.432Z,36.48
2023-04-05T15:34:31.448Z,36.19
2023-04-05T15:37:20.309Z,35.11
2023-04-05T15:40:10.359Z,35.79
2023-04-05T15:43:00.797Z,35.76
2023-04-05T15:45:49.657Z,36.32
2023-04-05T15:48:38.367Z,35.84
2023-04-05T15:51:27.253Z,36.42
2023-04-05T15:54:18.851Z,36.25
2023-04-05T15:57:07.943Z,37.21
2023-04-05T15:59:58.097Z,37.14
2023-04-05T16:02:49.934Z,36.76
2023-04-05T16:05:38.902Z,36.96
2023-04-05T16:08:27.634Z,36.51
2023-04-05T16:11:16.435Z,37.20
2023-04-05T16:14:05.477Z,36.66
2023-04-05T16:16:55.691Z,36.94
2023-04-05T16:19:44.508Z,36.67
2023-04-05T16:22:33.214Z,37.23
2023-04-05T16:25:22.631Z,37.02
2023-04-05T16:28:12.285Z,37.04
2023-04-05T16:31:01.145Z,36.82
2023-04-05T16:33:52.654Z,37.23
2023-04-05T16:36:41.900Z,36.87
2023-04-05T16:39:30.896Z,37.67
2023-04-05T16:42:19.668Z,37.41
2023-04-05T16:45:09.213Z,37.12
2023-04-05T16:47:58.060Z,37.24
2023-04-05T16:50:48.530Z,37.05
2023-04-05T16:53:37.365Z,36.50
2023-04-05T16:56:26.288Z,36.00
2023-04-05T16:59:15.165Z,36.58
2023-04-05T17:02:04.009Z,36.11
2023-04-05T17:04:54.131Z,36.32
2023-04-05T17:07:44.321Z,36.25
2023-04-05T17:10:33.032Z,36.41
2023-04-05T17:13:21.858Z,36.47
2023-04-05T17:16:10.643Z,36.88
2023-04-05T17:18:59.415Z,36.50
2023-04-05T17:21:48.773Z,36.34
2023-04-05T17:24:39.537Z,36.73
2023-04-05T17:27:28.288Z,37.09
2023-04-05T17:30:17.728Z,37.06
2023-04-05T17:33:06.609Z,37.47
2023-04-05T17:35:55.451Z,37.60
2023-04-05T17:38:44.403Z,37.72
2023-04-05T17:41:34.696Z,38.10
2023-04-05T17:44:23.478Z,38.34
2023-04-05T17:47:12.277Z,38.48
2023-04-05T17:50:01.076Z,38.28
2023-04-05T17:52:49.903Z,38.47
2023-04-05T17:55:38.953Z,38.63
2023-04-05T17:58:30.341Z,38.76
2023-04-05T18:01:19.113Z,38.87
2023-04-05T18:04:10.241Z,38.90
2023-04-05T18:07:01.345Z,37.79
2023-04-05T18:09:50.305Z,38.82
2023-04-05T18:12:39.063Z,38.82
2023-04-05T18:15:29.274Z,36.84
2023-04-05T18:18:18.029Z,38.12
2023-04-05T18:21:06.841Z,38.32
2023-04-05T18:23:56.488Z,38.69
2023-04-05T18:26:45.355Z,39.14
2023-04-05T18:29:37.998Z,38.91
2023-04-05T18:32:28.496Z,39.10
2023-04-05T18:35:17.583Z,38.74
2023-04-05T18:38:06.690Z,38.63
2023-04-05T18:41:03.394Z,38.53
2023-04-05T18:43:54.560Z,38.79
2023-04-05T18:46:44.205Z,38.46
2023-04-05T18:49:37.027Z,38.57
2023-04-05T18:52:27.399Z,38.86
2023-04-05T18:55:16.623Z,38.80
2023-04-05T18:58:05.521Z,38.64
2023-04-05T19:00:54.466Z,38.50
2023-04-05T19:03:43.496Z,38.56
2023-04-05T19:06:34.736Z,38.21
2023-04-05T19:09:23.564Z,38.35
2023-04-05T19:12:15.356Z,38.57
2023-04-05T19:15:05.200Z,38.31
2023-04-05T19:17:54.021Z,38.16
2023-04-05T19:20:42.985Z,38.06
2023-04-05T19:23:33.336Z,38.13
2023-04-05T19:26:22.639Z,38.60
2023-04-05T19:29:11.823Z,38.02
2023-04-05T19:32:00.802Z,37.88
2023-04-05T19:34:49.617Z,37.49
2023-04-05T19:37:38.572Z,37.86
2023-04-05T19:40:32.097Z,37.90
2023-04-05T19:43:20.945Z,38.01
2023-04-05T19:46:13.493Z,38.27
2023-04-05T19:49:08.728Z,37.86
2023-04-05T19:52:02.951Z,38.02
2023-04-05T19:54:52.824Z,38.06
2023-04-05T19:57:43.023Z,38.38
2023-04-05T20:00:33.738Z,38.13
2023-04-05T20:03:30.215Z,37.71
2023-04-05T20:06:22.105Z,37.58
2023-04-05T20:09:11.531Z,37.45
2023-04-05T20:12:01.549Z,37.94
2023-04-05T20:14:52.117Z,37.89
2023-04-05T20:17:43.657Z,37.84
2023-04-05T20:20:32.750Z,37.73
2023-04-05T20:23:22.819Z,37.94
2023-04-05T20:26:14.295Z,38.21
2023-04-05T20:29:03.960Z,38.28
2023-04-05T20:31:54.420Z,37.92
2023-04-05T20:34:46.211Z,38.14
2023-04-05T20:37:35.185Z,38.27
2023-04-05T20:40:23.998Z,38.29
2023-04-05T20:43:12.756Z,37.65
2023-04-05T20:46:02.674Z,37.91
2023-04-05T20:48:55.712Z,37.93
2023-04-05T20:51:44.873Z,37.95
2023-04-05T20:54:34.910Z,37.78
2023-04-05T20:57:23.951Z,37.62
2023-04-05T21:00:14.569Z,37.49
2023-04-05T21:03:03.384Z,37.42
2023-04-05T21:05:53.749Z,37.19
2023-04-05T21:08:43.774Z,37.30
2023-04-05T21:11:32.837Z,37.25
2023-04-05T21:14:21.586Z,37.59
2023-04-05T21:17:10.314Z,38.08
2023-04-05T21:19:59.253Z,38.50
2023-04-05T21:22:49.428Z,39.07
2023-04-05T21:25:38.714Z,39.36
2023-04-05T21:28:28.436Z,40.13
2023-04-05T21:31:17.246Z,40.21
2023-04-05T21:34:06.093Z,39.76
2023-04-05T21:36:54.934Z,39.73
2023-04-05T21:39:45.370Z,39.46
2023-04-05T21:42:34.137Z,39.57
2023-04-05T21:45:23.128Z,40.50
2023-04-05T21:48:11.883Z,41.16
2023-04-05T21:51:00.647Z,41.49
2023-04-05T21:53:49.449Z,41.98
2023-04-05T21:56:39.711Z,41.71
2023-04-05T21:59:28.540Z,42.18
2023-04-05T22:02:17.482Z,42.41
2023-04-05T22:05:07.026Z,42.63
2023-04-05T22:07:55.917Z,42.57
2023-04-05T22:10:45.010Z,42.36
2023-04-05T22:13:35.487Z,42.71
2023-04-05T22:16:24.326Z,42.73
2023-04-05T22:19:13.384Z,42.81
2023-04-05T22:22:02.272Z,42.64
2023-04-05T22:24:51.110Z,42.97
2023-04-05T22:27:39.940Z,42.81
2023-04-05T22:30:40.957Z,42.97
2023-04-05T22:33:32.328Z,42.85
2023-04-05T22:36:21.363Z,42.85
2023-04-05T22:39:10.572Z,43.18
2023-04-05T22:41:59.524Z,42.92
2023-04-05T22:44:48.371Z,43.18
2023-04-05T22:47:38.622Z,43.21
2023-04-05T22:50:27.447Z,42.92
2023-04-05T22:53:16.229Z,43.13
2023-04-05T22:56:04.966Z,43.00
2023-04-05T22:58:53.713Z,42.09
2023-04-05T23:01:42.527Z,42.41
2023-04-05T23:04:32.876Z,42.90
2023-04-05T23:07:21.643Z,42.61
2023-04-05T23:10:11.568Z,42.96
2023-04-05T23:13:00.442Z,43.23
2023-04-05T23:15:49.286Z,42.65
2023-04-05T23:18:38.115Z,43.17
2023-04-05T23:21:28.525Z,43.18
2023-04-05T23:24:17.258Z,43.43
2023-04-05T23:27:06.423Z,43.34
2023-04-05T23:29:55.259Z,43.07
2023-04-05T23:32:44.033Z,43.47
2023-04-05T23:35:32.914Z,43.32
2023-04-05T23:38:23.046Z,43.11
2023-04-05T23:41:11.762Z,43.26
2023-04-05T23:44:01.438Z,43.24
2023-04-05T23:46:50.385Z,43.04
2023-04-05T23:49:39.232Z,43.34
2023-04-05T23:52:28.007Z,43.28
2023-04-05T23:55:18.580Z,43.41
2023-04-05T23:58:07.594Z,42.95
